Time;durP1;ratioP1;P1;durP2;ratioP2;P2;SDS_P1;SDS_P2;PMS_P1;PMS_P2;Temp;Humidity;BMP_temperature;BMP_pressure;BME280_temperature;BME280_humidity;BME280_pressure;Samples;Min_cycle;Max_cycle;Signal;HPM_P1;HPM_P2
2023/06/18 00:00:25;;;;;;;9.50;7.28;;;18.60;58.10;;;;;;5071404;28;20052;-62
2023/06/18 00:02:53;;;;;;;8.55;6.38;;;18.50;58.10;;;;;;5066583;28;20063;-63
2023/06/18 00:05:20;;;;;;;7.65;6.15;;;18.40;58.00;;;;;;5078615;28;20491;-63
2023/06/18 00:07:47;;;;;;;8.55;6.25;;;18.40;57.90;;;;;;5069387;28;20431;-63
2023/06/18 00:10:14;;;;;;;9.30;6.53;;;18.30;57.90;;;;;;5070373;28;20508;-65
2023/06/18 00:12:40;;;;;;;8.55;6.07;;;18.30;58.10;;;;;;5070578;28;20053;-62
2023/06/18 00:15:08;;;;;;;8.63;6.03;;;18.30;58.30;;;;;;5067962;28;20056;-62
2023/06/18 00:17:35;;;;;;;8.18;6.43;;;18.20;58.40;;;;;;5070369;28;20067;-63
2023/06/18 00:20:05;;;;;;;10.13;6.80;;;18.20;58.50;;;;;;5069326;28;20155;-64
2023/06/18 00:22:38;;;;;;;7.35;6.10;;;18.20;58.60;;;;;;5068777;28;20072;-64
2023/06/18 00:25:06;;;;;;;9.10;6.53;;;18.20;58.60;;;;;;5066958;28;20476;-64
2023/06/18 00:27:33;;;;;;;8.13;5.93;;;18.10;58.60;;;;;;5065664;28;20094;-63
2023/06/18 00:30:00;;;;;;;8.40;5.93;;;18.10;58.60;;;;;;5068930;28;20040;-64
2023/06/18 00:32:28;;;;;;;8.35;6.18;;;18.10;58.50;;;;;;5066088;28;20118;-63
2023/06/18 00:34:56;;;;;;;7.60;6.03;;;18.00;58.70;;;;;;5066999;28;20044;-63
2023/06/18 00:37:26;;;;;;;7.40;5.50;;;18.00;58.90;;;;;;5067590;28;20475;-64
2023/06/18 00:39:53;;;;;;;10.32;6.45;;;17.90;59.00;;;;;;5066122;28;20041;-64
2023/06/18 00:42:20;;;;;;;7.75;6.07;;;17.90;59.10;;;;;;5071587;28;20052;-64
2023/06/18 00:44:47;;;;;;;8.77;6.38;;;17.90;59.20;;;;;;5068039;28;20499;-65
2023/06/18 00:47:14;;;;;;;8.60;6.53;;;17.90;59.50;;;;;;5062919;28;20414;-65
2023/06/18 00:49:42;;;;;;;9.38;6.97;;;17.80;59.80;;;;;;5066779;28;20056;-63
2023/06/18 00:52:12;;;;;;;9.40;7.10;;;17.70;60.00;;;;;;5049214;28;20557;-65
2023/06/18 00:54:40;;;;;;;;;;;17.70;60.10;;;;;;5064301;28;20567;-63
2023/06/18 00:57:08;;;;;;;8.60;6.75;;;17.70;60.30;;;;;;5059609;28;19924;-64
2023/06/18 00:59:37;;;;;;;9.48;7.30;;;17.70;60.30;;;;;;5068123;28;20044;-64
2023/06/18 01:02:07;;;;;;;9.32;7.20;;;17.70;60.50;;;;;;5066933;28;20056;-64
2023/06/18 01:04:35;;;;;;;8.73;6.63;;;17.70;60.80;;;;;;5071080;28;20135;-64
2023/06/18 01:07:02;;;;;;;8.80;6.60;;;17.60;60.90;;;;;;5067474;28;20411;-63
2023/06/18 01:09:30;;;;;;;10.20;7.68;;;17.50;61.20;;;;;;5070033;28;20142;-64
2023/06/18 01:12:00;;;;;;;9.45;7.10;;;17.50;61.50;;;;;;5070216;28;20146;-64
2023/06/18 01:14:28;;;;;;;8.88;7.38;;;17.40;61.60;;;;;;5064033;28;20048;-64
2023/06/18 01:16:57;;;;;;;10.02;7.47;;;17.40;61.60;;;;;;5053990;28;20048;-64
2023/06/18 01:19:40;;;;;;;8.88;7.15;;;17.40;61.50;;;;;;5064091;28;20044;-64
2023/06/18 01:22:18;;;;;;;9.65;7.30;;;17.40;61.60;;;;;;5064318;28;20094;-64
2023/06/18 01:24:50;;;;;;;10.57;7.35;;;17.40;61.40;;;;;;5067936;28;20049;-64
2023/06/18 01:27:21;;;;;;;9.45;7.40;;;17.40;61.50;;;;;;5064205;28;20052;-65
2023/06/18 01:29:50;;;;;;;10.95;7.78;;;17.40;61.70;;;;;;5065273;28;20040;-64
2023/06/18 01:32:17;;;;;;;10.98;7.55;;;17.30;61.70;;;;;;5061949;28;20052;-64
2023/06/18 01:34:44;;;;;;;10.95;7.50;;;17.20;61.90;;;;;;5065825;28;20143;-65
2023/06/18 01:37:20;;;;;;;10.00;7.72;;;17.20;62.10;;;;;;5065726;28;20041;-64
2023/06/18 01:39:55;;;;;;;10.98;7.90;;;17.20;62.20;;;;;;5068766;28;20463;-63
2023/06/18 01:42:25;;;;;;;10.73;7.60;;;17.10;62.40;;;;;;5080904;28;20399;-64
2023/06/18 01:45:07;;;;;;;11.50;7.55;;;17.10;62.60;;;;;;5066614;28;20971;-63
2023/06/18 01:47:35;;;;;;;9.70;7.05;;;17.00;62.70;;;;;;5060070;28;20458;-64
2023/06/18 01:50:04;;;;;;;10.32;7.50;;;17.10;62.60;;;;;;5067234;28;20407;-64
2023/06/18 01:52:35;;;;;;;9.90;7.50;;;17.00;62.60;;;;;;5063356;28;20096;-61
2023/06/18 01:55:03;;;;;;;9.75;7.60;;;17.00;62.80;;;;;;5068104;28;20592;-63
2023/06/18 01:57:33;;;;;;;7.93;6.80;;;16.90;62.90;;;;;;5062639;28;20071;-64
2023/06/18 02:00:00;;;;;;;9.27;6.45;;;16.90;63.00;;;;;;5062988;28;20075;-62
2023/06/18 02:02:27;;;;;;;9.38;6.88;;;16.90;63.20;;;;;;5063341;28;20084;-64
2023/06/18 02:04:54;;;;;;;9.45;6.90;;;16.90;63.20;;;;;;5061420;28;20048;-63
2023/06/18 02:07:21;;;;;;;7.97;6.07;;;16.90;63.30;;;;;;5061766;28;20075;-63
2023/06/18 02:09:48;;;;;;;8.95;6.55;;;16.80;63.30;;;;;;5066701;28;20052;-63
2023/06/18 02:12:14;;;;;;;10.30;6.38;;;16.90;63.30;;;;;;5067963;28;20048;-63
2023/06/18 02:14:43;;;;;;;8.65;6.85;;;16.80;63.30;;;;;;5068815;28;20415;-62
2023/06/18 02:17:10;;;;;;;10.50;6.75;;;16.80;63.40;;;;;;5078684;28;20071;-62
2023/06/18 02:19:37;;;;;;;8.82;6.50;;;16.80;63.60;;;;;;5065759;28;20052;-62
2023/06/18 02:22:05;;;;;;;8.93;6.57;;;16.70;63.60;;;;;;5066787;28;20048;-63
2023/06/18 02:24:32;;;;;;;9.02;7.07;;;16.70;63.90;;;;;;5068115;28;20057;-62
2023/06/18 02:26:59;;;;;;;9.75;6.97;;;16.60;64.00;;;;;;5067230;28;20049;-62
2023/06/18 02:29:26;;;;;;;10.57;7.00;;;16.60;64.00;;;;;;5068740;28;20044;-63
2023/06/18 02:31:55;;;;;;;10.52;7.20;;;16.60;64.00;;;;;;5066738;28;20061;-62
2023/06/18 02:34:27;;;;;;;10.32;7.35;;;16.60;63.90;;;;;;5064441;28;20053;-63
2023/06/18 02:36:54;;;;;;;10.63;7.97;;;16.60;64.10;;;;;;5067332;28;20098;-63
2023/06/18 02:39:21;;;;;;;12.10;7.25;;;16.60;64.20;;;;;;5066061;28;20070;-63
2023/06/18 02:41:48;;;;;;;10.45;7.18;;;16.60;64.20;;;;;;5084378;28;20044;-64
2023/06/18 02:44:15;;;;;;;12.05;7.30;;;16.60;63.90;;;;;;5067548;28;20063;-64
2023/06/18 02:46:43;;;;;;;11.57;7.90;;;16.60;63.90;;;;;;5065338;28;20052;-64
2023/06/18 02:49:11;;;;;;;10.95;7.20;;;16.60;64.20;;;;;;5063088;28;20505;-64
2023/06/18 02:51:38;;;;;;;9.95;7.32;;;16.60;64.30;;;;;;5066436;28;20044;-64
2023/06/18 02:54:05;;;;;;;8.40;6.82;;;16.50;64.60;;;;;;5066445;28;20132;-64
2023/06/18 02:56:32;;;;;;;10.77;6.95;;;16.40;64.80;;;;;;5063006;28;20052;-64
2023/06/18 02:58:59;;;;;;;11.82;7.75;;;16.40;65.00;;;;;;5062142;28;20064;-64
2023/06/18 03:01:28;;;;;;;9.57;7.30;;;16.40;65.00;;;;;;5065338;28;20052;-64
2023/06/18 03:03:55;;;;;;;11.07;6.93;;;16.30;65.10;;;;;;5055245;28;20044;-63
2023/06/18 03:06:27;;;;;;;9.52;7.10;;;16.30;65.10;;;;;;5062100;28;20118;-62
2023/06/18 03:08:54;;;;;;;;;;;16.40;64.70;;;;;;5082470;28;20062;-63
2023/06/18 03:11:22;;;;;;;9.60;6.30;;;16.40;64.60;;;;;;5062762;28;19920;-65
2023/06/18 03:13:51;;;;;;;10.77;7.25;;;16.40;64.50;;;;;;5061945;28;20051;-63
2023/06/18 03:16:18;;;;;;;10.32;7.45;;;16.40;64.40;;;;;;5072135;28;20057;-64
2023/06/18 03:18:45;;;;;;;9.63;7.70;;;16.40;64.50;;;;;;5081295;28;20052;-63
2023/06/18 03:21:12;;;;;;;9.90;7.78;;;16.30;64.80;;;;;;5055612;28;20059;-64
2023/06/18 03:23:41;;;;;;;9.13;7.55;;;16.30;64.90;;;;;;5062579;28;20060;-64
2023/06/18 03:26:09;;;;;;;9.38;7.47;;;16.30;64.90;;;;;;5062404;28;20044;-64
2023/06/18 03:28:36;;;;;;;8.88;7.55;;;16.30;65.00;;;;;;5066135;28;20140;-63
2023/06/18 03:31:04;;;;;;;12.32;8.10;;;16.30;65.00;;;;;;5073724;28;20076;-64
2023/06/18 03:33:33;;;;;;;10.13;7.70;;;16.20;65.10;;;;;;5065606;28;20044;-64
2023/06/18 03:36:00;;;;;;;12.23;7.32;;;16.20;65.30;;;;;;5064723;28;20521;-63
2023/06/18 03:38:29;;;;;;;8.75;7.13;;;16.20;65.70;;;;;;5066090;28;20506;-64
2023/06/18 03:41:01;;;;;;;10.50;7.72;;;16.10;66.00;;;;;;5081758;28;20053;-63
2023/06/18 03:43:31;;;;;;;9.63;7.72;;;16.20;65.40;;;;;;5065508;28;20128;-64
2023/06/18 03:45:58;;;;;;;9.50;7.22;;;16.20;65.30;;;;;;5064555;28;20477;-63
2023/06/18 03:48:26;;;;;;;9.70;7.30;;;16.20;65.40;;;;;;5064830;28;20071;-63
2023/06/18 03:50:53;;;;;;;9.38;7.05;;;16.30;65.50;;;;;;5065985;28;20128;-63
2023/06/18 03:53:20;;;;;;;9.63;7.40;;;16.20;65.70;;;;;;5073100;28;20147;-64
2023/06/18 03:55:48;;;;;;;8.45;6.78;;;16.20;65.90;;;;;;5063236;28;20091;-63
2023/06/18 03:58:20;;;;;;;9.77;7.10;;;16.20;66.10;;;;;;5063768;28;20088;-64
2023/06/18 04:00:48;;;;;;;8.50;7.22;;;16.10;66.30;;;;;;5063043;28;20048;-63
2023/06/18 04:03:16;;;;;;;10.32;7.50;;;16.10;66.40;;;;;;5063840;28;20045;-64
2023/06/18 04:05:42;;;;;;;10.65;7.18;;;16.10;66.30;;;;;;5065296;28;20056;-63
2023/06/18 04:08:09;;;;;;;9.57;7.40;;;16.10;66.40;;;;;;5064950;28;20047;-64
2023/06/18 04:10:36;;;;;;;9.20;7.30;;;16.20;66.10;;;;;;5065717;28;20041;-65
2023/06/18 04:13:03;;;;;;;9.80;7.28;;;16.20;65.90;;;;;;5066468;28;20117;-63
2023/06/18 04:15:31;;;;;;;9.48;7.55;;;16.20;66.00;;;;;;5058283;28;20044;-64
2023/06/18 04:17:59;;;;;;;9.32;6.68;;;16.20;66.30;;;;;;5064451;28;20051;-64
2023/06/18 04:20:27;;;;;;;9.68;7.30;;;16.20;66.20;;;;;;5066555;28;20057;-64
2023/06/18 04:22:53;;;;;;;10.45;7.90;;;16.10;66.40;;;;;;5067660;28;20135;-63
2023/06/18 04:25:22;;;;;;;9.93;7.03;;;16.20;66.10;;;;;;5068812;28;20075;-64
2023/06/18 04:27:52;;;;;;;10.07;7.75;;;16.10;66.40;;;;;;5068667;28;20084;-63
2023/06/18 04:30:20;;;;;;;10.10;7.25;;;16.10;66.80;;;;;;5069989;28;20052;-63
2023/06/18 04:32:49;;;;;;;10.05;7.07;;;16.10;66.90;;;;;;5068846;28;20048;-65
2023/06/18 04:35:17;;;;;;;9.43;7.30;;;16.20;66.60;;;;;;5068398;28;20052;-64
2023/06/18 04:37:45;;;;;;;9.93;7.18;;;16.30;66.30;;;;;;5070705;28;20914;-65
2023/06/18 04:40:12;;;;;;;9.07;7.13;;;16.30;66.30;;;;;;5070177;28;20406;-63
2023/06/18 04:42:41;;;;;;;8.82;7.05;;;16.30;66.30;;;;;;5060846;28;20053;-64
2023/06/18 04:45:12;;;;;;;9.68;7.22;;;16.40;66.20;;;;;;5065898;28;20060;-63
2023/06/18 04:47:39;;;;;;;9.27;6.95;;;16.40;66.10;;;;;;5068216;28;20059;-63
2023/06/18 04:50:08;;;;;;;9.93;6.95;;;16.40;66.10;;;;;;5069640;28;20102;-65
2023/06/18 04:52:41;;;;;;;9.35;6.82;;;16.50;66.00;;;;;;5067960;28;20048;-65
2023/06/18 04:55:09;;;;;;;9.80;6.95;;;16.50;65.80;;;;;;5069931;28;20048;-64
2023/06/18 04:57:37;;;;;;;9.57;7.32;;;16.60;65.80;;;;;;5069344;28;20121;-63
2023/06/18 05:00:05;;;;;;;9.48;7.40;;;16.60;65.90;;;;;;5069532;28;20048;-65
2023/06/18 05:02:35;;;;;;;9.35;7.65;;;16.60;65.90;;;;;;5068313;28;20055;-64
2023/06/18 05:05:01;;;;;;;9.30;7.25;;;16.60;66.30;;;;;;5064142;28;20500;-64
2023/06/18 05:07:30;;;;;;;9.20;7.20;;;16.60;66.20;;;;;;5069817;28;20044;-63
2023/06/18 05:09:57;;;;;;;9.95;7.53;;;16.60;66.30;;;;;;5066592;28;20526;-63
2023/06/18 05:12:25;;;;;;;8.55;7.28;;;16.60;66.40;;;;;;5069339;28;20132;-64
2023/06/18 05:14:53;;;;;;;10.40;7.50;;;16.60;66.50;;;;;;5066403;28;20048;-64
2023/06/18 05:17:20;;;;;;;9.88;7.45;;;16.70;66.40;;;;;;5067333;28;20123;-64
2023/06/18 05:19:47;;;;;;;8.73;7.40;;;16.70;66.20;;;;;;5065597;28;20052;-64
2023/06/18 05:22:15;;;;;;;9.60;7.03;;;16.80;66.10;;;;;;5068079;28;20044;-65
2023/06/18 05:24:43;;;;;;;9.05;7.13;;;16.90;65.90;;;;;;5067409;28;20045;-62
2023/06/18 05:27:10;;;;;;;9.18;6.93;;;16.90;66.00;;;;;;5067241;28;20469;-63
2023/06/18 05:29:38;;;;;;;9.18;7.03;;;16.90;65.60;;;;;;5065782;28;20479;-63
2023/06/18 05:32:06;;;;;;;8.43;6.85;;;17.00;65.60;;;;;;5066527;28;20492;-64
2023/06/18 05:34:33;;;;;;;8.65;7.18;;;17.00;65.70;;;;;;5069384;28;20048;-65
2023/06/18 05:36:59;;;;;;;9.35;7.22;;;17.10;65.40;;;;;;5067287;28;20055;-64
2023/06/18 05:39:27;;;;;;;9.05;6.97;;;17.10;65.80;;;;;;5068654;28;20094;-64
2023/06/18 05:41:55;;;;;;;9.18;7.15;;;17.10;65.80;;;;;;5069709;28;20617;-63
2023/06/18 05:44:24;;;;;;;11.70;7.60;;;17.10;65.50;;;;;;5066497;28;20060;-64
2023/06/18 05:46:51;;;;;;;10.90;7.80;;;17.10;65.70;;;;;;5068233;28;20044;-65
2023/06/18 05:49:18;;;;;;;10.27;7.60;;;17.20;65.70;;;;;;5066808;28;20072;-64
2023/06/18 05:51:46;;;;;;;9.05;7.15;;;17.20;65.50;;;;;;5069240;28;20072;-65
2023/06/18 05:54:13;;;;;;;9.70;7.55;;;17.20;65.50;;;;;;5065126;28;20139;-64
2023/06/18 05:56:40;;;;;;;9.52;7.47;;;17.30;65.80;;;;;;5069559;28;20118;-64
2023/06/18 05:59:09;;;;;;;9.90;7.55;;;17.30;66.20;;;;;;5066763;28;20056;-64
2023/06/18 06:01:40;;;;;;;8.95;7.50;;;17.30;65.80;;;;;;5067993;28;20412;-64
2023/06/18 06:04:08;;;;;;;8.40;7.03;;;17.30;65.70;;;;;;5064879;28;20106;-65
2023/06/18 06:06:36;;;;;;;10.20;7.80;;;17.40;65.60;;;;;;5068109;28;20499;-64
2023/06/18 06:09:03;;;;;;;9.52;7.63;;;17.40;65.60;;;;;;5067180;28;20131;-64
2023/06/18 06:11:36;;;;;;;9.13;6.95;;;17.40;66.50;;;;;;5065778;28;20057;-64
2023/06/18 06:14:05;;;;;;;9.50;8.00;;;17.60;65.70;;;;;;5059783;28;20051;-65
2023/06/18 06:16:33;;;;;;;8.60;7.38;;;17.60;65.90;;;;;;5065919;28;20047;-65
2023/06/18 06:19:00;;;;;;;9.30;7.63;;;17.60;65.80;;;;;;5068445;28;20135;-65
2023/06/18 06:21:28;;;;;;;9.85;7.88;;;17.70;65.50;;;;;;5066382;28;20110;-65
2023/06/18 06:23:56;;;;;;;9.77;7.97;;;17.70;65.80;;;;;;5066728;28;20049;-64
2023/06/18 06:26:23;;;;;;;10.70;8.13;;;17.90;66.30;;;;;;5067494;28;20056;-64
2023/06/18 06:28:50;;;;;;;9.63;7.75;;;18.00;65.50;;;;;;5066483;28;20526;-65
2023/06/18 06:31:17;;;;;;;10.55;8.20;;;18.00;65.90;;;;;;5067819;28;20068;-65
2023/06/18 06:33:46;;;;;;;9.68;7.78;;;18.10;66.00;;;;;;5067401;28;20060;-64
2023/06/18 06:36:13;;;;;;;9.77;8.30;;;18.30;65.70;;;;;;5067543;28;20048;-65
2023/06/18 06:38:40;;;;;;;9.45;7.53;;;18.50;65.30;;;;;;5070129;28;20471;-62
2023/06/18 06:41:08;;;;;;;10.00;7.93;;;18.70;65.20;;;;;;5081698;28;20503;-65
2023/06/18 06:43:35;;;;;;;9.85;8.48;;;18.80;64.90;;;;;;5065471;28;20423;-63
2023/06/18 06:46:31;;;;;;;10.25;8.32;;;19.00;64.00;;;;;;5019929;28;20124;-64
2023/06/18 06:49:12;;;;;;;11.07;7.28;;;19.10;63.30;;;;;;5058772;28;20051;-65
2023/06/18 06:51:55;;;;;;;11.70;8.32;;;19.30;63.30;;;;;;5067127;28;20419;-63
2023/06/18 06:54:22;;;;;;;9.55;8.25;;;19.40;63.30;;;;;;5066889;28;20095;-63
2023/06/18 06:56:49;;;;;;;9.80;8.38;;;19.60;63.50;;;;;;5065373;28;20060;-65
2023/06/18 06:59:16;;;;;;;9.40;7.85;;;19.60;63.30;;;;;;5074626;28;20067;-64
2023/06/18 07:01:44;;;;;;;10.20;7.90;;;19.80;62.70;;;;;;5067424;28;20064;-65
2023/06/18 07:04:14;;;;;;;9.43;8.23;;;20.00;62.30;;;;;;5080811;28;20059;-64
2023/06/18 07:06:40;;;;;;;11.70;9.13;;;20.10;62.40;;;;;;5065862;28;20048;-64
2023/06/18 07:09:08;;;;;;;9.60;8.00;;;20.20;62.30;;;;;;5068880;28;20040;-64
2023/06/18 07:11:36;;;;;;;10.65;8.48;;;20.30;62.80;;;;;;5068729;28;20067;-64
2023/06/18 07:14:03;;;;;;;10.90;8.38;;;20.40;62.50;;;;;;5065178;28;20040;-63
2023/06/18 07:16:30;;;;;;;10.32;8.32;;;20.60;62.20;;;;;;5068214;28;20055;-65
2023/06/18 07:18:57;;;;;;;9.38;8.20;;;20.90;61.50;;;;;;5064651;28;20048;-64
2023/06/18 07:21:25;;;;;;;11.75;8.20;;;21.10;61.70;;;;;;5067475;28;20053;-65
2023/06/18 07:23:52;;;;;;;11.80;8.35;;;21.10;61.40;;;;;;5081743;28;20052;-65
2023/06/18 07:26:19;;;;;;;9.60;8.05;;;21.30;60.90;;;;;;5067640;28;20048;-65
2023/06/18 07:28:46;;;;;;;9.18;8.18;;;21.60;60.70;;;;;;5068226;28;20491;-66
2023/06/18 07:31:13;;;;;;;10.82;8.13;;;21.70;60.10;;;;;;5068335;28;20048;-65
2023/06/18 07:33:39;;;;;;;10.85;8.23;;;22.10;59.60;;;;;;5061872;28;20280;-65
2023/06/18 07:36:06;;;;;;;8.40;7.38;;;22.10;59.40;;;;;;5068583;28;20080;-65
2023/06/18 07:38:35;;;;;;;9.50;8.23;;;22.30;59.30;;;;;;5068248;28;21478;-65
2023/06/18 07:41:02;;;;;;;10.95;8.63;;;22.50;58.10;;;;;;5067556;28;20505;-65
2023/06/18 07:43:29;;;;;;;8.88;7.88;;;22.60;58.10;;;;;;5069479;28;20048;-66
2023/06/18 07:45:56;;;;;;;9.40;8.05;;;22.80;57.30;;;;;;5065879;28;20052;-65
2023/06/18 07:48:23;;;;;;;10.32;8.70;;;22.90;57.30;;;;;;5067667;28;20044;-65
2023/06/18 07:50:50;;;;;;;9.02;7.72;;;23.10;56.80;;;;;;5065073;28;20044;-66
2023/06/18 07:53:17;;;;;;;8.95;7.80;;;23.30;56.40;;;;;;5068357;28;20036;-66
2023/06/18 07:55:45;;;;;;;8.82;7.90;;;23.50;55.40;;;;;;5068431;28;20056;-66
2023/06/18 07:58:14;;;;;;;8.55;7.65;;;23.60;55.90;;;;;;5070102;28;20102;-65
2023/06/18 08:00:41;;;;;;;10.43;8.07;;;23.80;55.40;;;;;;5071984;28;20098;-71
2023/06/18 08:03:08;;;;;;;9.18;7.20;;;23.90;54.70;;;;;;5070921;28;20047;-72
2023/06/18 08:05:35;;;;;;;8.32;7.43;;;24.00;54.80;;;;;;5069305;28;20057;-72
2023/06/18 08:08:01;;;;;;;8.98;7.82;;;24.00;55.00;;;;;;5070142;28;20049;-71
2023/06/18 08:10:28;;;;;;;8.95;7.65;;;24.20;55.10;;;;;;5072038;28;20060;-72
2023/06/18 08:12:56;;;;;;;9.35;7.85;;;24.30;54.40;;;;;;5071526;28;20055;-72
2023/06/18 08:15:23;;;;;;;8.73;7.53;;;24.40;54.00;;;;;;5068317;28;20047;-71
2023/06/18 08:17:50;;;;;;;8.40;7.50;;;24.40;53.50;;;;;;5068647;28;20048;-70
2023/06/18 08:20:17;;;;;;;10.27;8.00;;;24.50;53.20;;;;;;5071321;28;20056;-72
2023/06/18 08:22:44;;;;;;;8.60;7.78;;;24.70;52.70;;;;;;5067101;28;20496;-71
2023/06/18 08:25:11;;;;;;;10.13;8.13;;;24.80;53.10;;;;;;5070346;28;20102;-71
2023/06/18 08:27:38;;;;;;;10.20;7.50;;;25.00;52.50;;;;;;5070198;28;20059;-72
2023/06/18 08:30:08;;;;;;;10.77;8.32;;;25.10;51.80;;;;;;5068771;28;20059;-73
2023/06/18 08:32:34;;;;;;;15.45;8.43;;;25.30;51.00;;;;;;5071170;28;20446;-72
2023/06/18 08:35:02;;;;;;;10.88;7.60;;;25.40;50.00;;;;;;5069890;28;20056;-72
2023/06/18 08:37:29;;;;;;;12.05;8.63;;;25.60;49.70;;;;;;5072749;28;20040;-73
2023/06/18 08:39:55;;;;;;;11.35;9.27;;;25.70;49.40;;;;;;5069958;28;20411;-72
2023/06/18 08:42:23;;;;;;;11.52;9.20;;;25.80;48.80;;;;;;5071646;28;20182;-72
2023/06/18 08:44:50;;;;;;;11.02;8.88;;;25.90;48.60;;;;;;5065857;28;20041;-72
2023/06/18 08:47:18;;;;;;;9.80;8.80;;;26.10;48.30;;;;;;5068057;28;20048;-72
2023/06/18 08:49:48;;;;;;;9.20;8.20;;;26.20;48.30;;;;;;5068982;28;20060;-71
2023/06/18 08:52:19;;;;;;;8.93;7.95;;;26.30;47.50;;;;;;5071404;28;20047;-73
2023/06/18 08:54:50;;;;;;;11.60;9.02;;;26.40;47.30;;;;;;5071182;28;20059;-73
2023/06/18 08:57:22;;;;;;;9.93;8.63;;;26.50;47.20;;;;;;5069469;28;20127;-73
2023/06/18 08:59:49;;;;;;;9.25;7.70;;;26.50;46.50;;;;;;5069027;28;20044;-73
2023/06/18 09:02:21;;;;;;;9.00;7.72;;;26.70;46.20;;;;;;5070012;28;20488;-73
2023/06/18 09:04:48;;;;;;;9.75;7.70;;;26.80;45.00;;;;;;5067586;28;20398;-73
2023/06/18 09:07:15;;;;;;;8.40;7.40;;;26.90;45.10;;;;;;5069658;28;20063;-72
2023/06/18 09:09:42;;;;;;;11.80;7.70;;;26.90;44.90;;;;;;5070555;28;20053;-72
2023/06/18 09:12:10;;;;;;;9.38;7.88;;;27.10;44.30;;;;;;5069782;28;20045;-71
2023/06/18 09:14:37;;;;;;;11.23;7.95;;;27.30;43.30;;;;;;5070093;28;20958;-72
2023/06/18 09:17:04;;;;;;;9.35;7.95;;;27.30;43.20;;;;;;5068913;28;20049;-72
2023/06/18 09:19:33;;;;;;;10.25;8.15;;;27.40;42.80;;;;;;5065932;28;20052;-71
2023/06/18 09:22:12;;;;;;;;;;;27.60;42.70;;;;;;5069972;28;20499;-72
2023/06/18 09:24:41;;;;;;;12.13;9.40;;;27.60;42.30;;;;;;5071148;28;19973;-72
2023/06/18 09:27:09;;;;;;;18.70;12.98;;;27.70;42.70;;;;;;5068376;28;20492;-72
2023/06/18 09:29:42;;;;;;;20.10;14.63;;;27.90;42.10;;;;;;5067416;28;20052;-72
2023/06/18 09:32:13;;;;;;;31.17;22.65;;;28.00;41.70;;;;;;5068742;28;20075;-73
2023/06/18 09:34:43;;;;;;;28.80;20.27;;;28.00;41.60;;;;;;5068802;28;20064;-74
2023/06/18 09:37:14;;;;;;;24.13;18.80;;;28.10;41.70;;;;;;5066082;28;20502;-72
2023/06/18 09:39:41;;;;;;;27.02;19.67;;;28.00;41.00;;;;;;5069039;28;20061;-73
2023/06/18 09:42:11;;;;;;;21.13;17.83;;;27.90;40.30;;;;;;5064484;28;20163;-72
2023/06/18 09:44:38;;;;;;;23.20;18.67;;;27.90;40.10;;;;;;5069393;28;20074;-72
2023/06/18 09:47:11;;;;;;;22.35;18.63;;;28.10;40.30;;;;;;5068881;28;20667;-72
2023/06/18 09:49:45;;;;;;;25.05;19.48;;;28.10;40.60;;;;;;5065719;28;20053;-73
2023/06/18 09:52:13;;;;;;;22.35;17.77;;;28.10;40.40;;;;;;5089873;28;20047;-72
2023/06/18 09:54:41;;;;;;;25.25;19.88;;;28.10;40.20;;;;;;5089129;28;20056;-72
2023/06/18 09:57:10;;;;;;;25.70;20.05;;;28.10;40.00;;;;;;5089310;28;20048;-72
2023/06/18 09:59:37;;;;;;;26.65;23.00;;;28.20;40.10;;;;;;5086169;28;20135;-72
2023/06/18 10:02:06;;;;;;;17.60;15.70;;;28.20;39.80;;;;;;5076580;28;20048;-73
2023/06/18 10:04:33;;;;;;;15.35;13.85;;;28.30;38.10;;;;;;5085128;28;20056;-72
2023/06/18 10:07:04;;;;;;;27.67;24.95;;;28.50;38.50;;;;;;5090007;28;20126;-72
2023/06/18 10:09:33;;;;;;;29.98;26.63;;;28.50;38.80;;;;;;5081147;28;20052;-74
2023/06/18 10:12:02;;;;;;;24.15;21.73;;;28.60;39.00;;;;;;5068310;28;20041;-73
2023/06/18 10:14:30;;;;;;;;;;;28.70;38.20;;;;;;5079018;28;20059;-72
2023/06/18 10:17:04;;;;;;;21.33;19.00;;;28.80;38.50;;;;;;5073301;28;20015;-73
2023/06/18 10:19:34;;;;;;;18.40;16.48;;;28.90;37.60;;;;;;5083394;28;20051;-72
2023/06/18 10:22:04;;;;;;;18.70;16.73;;;29.10;38.00;;;;;;5068429;28;20048;-74
2023/06/18 10:24:35;;;;;;;22.02;19.15;;;29.10;37.80;;;;;;5083238;28;20055;-71
2023/06/18 10:27:03;;;;;;;18.95;16.92;;;29.20;38.50;;;;;;5086459;28;20056;-73
2023/06/18 10:29:32;;;;;;;21.83;19.63;;;29.30;37.80;;;;;;5079556;28;20040;-73
2023/06/18 10:32:01;;;;;;;20.60;18.60;;;29.40;37.90;;;;;;5069486;28;20040;-73
2023/06/18 10:34:28;;;;;;;18.15;16.33;;;29.50;38.00;;;;;;5069249;28;20094;-73
2023/06/18 10:36:57;;;;;;;18.25;16.42;;;29.60;37.60;;;;;;5068794;28;20048;-73
2023/06/18 10:39:26;;;;;;;15.60;13.95;;;29.60;37.80;;;;;;5065533;28;20044;-73
2023/06/18 10:41:53;;;;;;;;;;;29.70;36.90;;;;;;5068433;28;20048;-73
2023/06/18 10:44:33;;;;;;;13.93;12.18;;;29.80;37.60;;;;;;5066903;28;19920;-72
2023/06/18 10:47:26;;;;;;;12.35;11.15;;;29.90;36.80;;;;;;5068267;28;20033;-71
2023/06/18 10:50:13;;;;;;;11.55;9.98;;;29.90;36.60;;;;;;5056179;28;20071;-73
2023/06/18 10:52:41;;;;;;;10.30;9.23;;;30.00;35.30;;;;;;5068326;28;20064;-73
2023/06/18 10:55:11;;;;;;;9.80;8.50;;;30.10;35.00;;;;;;5067318;28;20040;-73
2023/06/18 10:57:39;;;;;;;10.02;9.00;;;30.10;35.50;;;;;;5068740;28;20075;-74
2023/06/18 11:00:17;;;;;;;9.15;8.25;;;30.20;35.80;;;;;;5066875;28;21180;-72
2023/06/18 11:02:46;;;;;;;9.98;8.98;;;30.10;35.20;;;;;;5067474;28;20128;-72
2023/06/18 11:05:17;;;;;;;9.38;8.45;;;30.20;35.30;;;;;;5080162;28;20044;-75
2023/06/18 11:07:58;;;;;;;10.30;7.97;;;30.30;35.40;;;;;;5088148;28;20055;-72
2023/06/18 11:10:34;;;;;;;9.50;8.50;;;30.30;34.10;;;;;;5075811;28;20055;-73
2023/06/18 11:13:03;;;;;;;10.57;9.23;;;30.30;35.40;;;;;;5040368;28;20037;-73
2023/06/18 11:15:30;;;;;;;10.88;9.68;;;30.30;35.10;;;;;;5076015;28;20056;-72
2023/06/18 11:18:00;;;;;;;12.00;9.90;;;30.40;35.40;;;;;;5080312;28;20044;-72
2023/06/18 11:20:30;;;;;;;10.07;9.07;;;30.40;35.60;;;;;;5049150;28;20515;-72
2023/06/18 11:22:58;;;;;;;11.85;9.45;;;30.40;35.10;;;;;;5054660;28;20067;-72
2023/06/18 11:25:26;;;;;;;11.15;9.98;;;30.50;35.50;;;;;;5065414;28;20048;-73
2023/06/18 11:27:57;;;;;;;10.00;8.00;;;30.50;35.40;;;;;;5066453;28;20037;-71
2023/06/18 11:30:24;;;;;;;10.13;8.88;;;30.50;34.50;;;;;;5066166;28;20053;-74
2023/06/18 11:32:54;;;;;;;11.63;8.40;;;30.60;34.40;;;;;;5072194;28;20074;-72
2023/06/18 11:35:21;;;;;;;9.63;8.25;;;30.60;34.20;;;;;;5074166;28;20048;-72
2023/06/18 11:37:48;;;;;;;9.63;7.70;;;30.60;33.20;;;;;;5071650;28;20052;-73
2023/06/18 11:40:15;;;;;;;8.70;7.20;;;30.70;34.20;;;;;;5071635;28;20048;-73
2023/06/18 11:42:50;;;;;;;8.77;7.97;;;30.60;34.10;;;;;;5066801;28;20049;-72
2023/06/18 11:45:19;;;;;;;9.57;7.95;;;30.60;34.30;;;;;;5071824;28;20078;-72
2023/06/18 11:47:48;;;;;;;9.48;8.07;;;30.70;32.90;;;;;;5069476;28;20403;-71
2023/06/18 11:50:15;;;;;;;8.13;7.30;;;30.80;32.20;;;;;;5070821;28;20098;-73
2023/06/18 11:52:43;;;;;;;7.78;6.97;;;30.70;31.20;;;;;;5070747;28;20052;-72
2023/06/18 11:55:10;;;;;;;7.60;6.80;;;30.80;32.50;;;;;;5071623;28;20064;-73
2023/06/18 11:57:37;;;;;;;7.57;6.78;;;30.80;33.50;;;;;;5071673;28;20048;-72
2023/06/18 12:00:08;;;;;;;8.52;7.47;;;30.80;32.30;;;;;;5071720;28;20049;-73
2023/06/18 12:02:41;;;;;;;8.40;7.60;;;30.80;33.20;;;;;;5066850;28;21574;-73
2023/06/18 12:05:10;;;;;;;8.48;7.68;;;30.80;33.30;;;;;;5071550;28;20040;-73
2023/06/18 12:07:38;;;;;;;;;;;30.80;33.60;;;;;;5070188;28;20052;-74
2023/06/18 12:10:06;;;;;;;;;;;30.70;33.90;;;;;;5070146;28;19920;-74
2023/06/18 12:12:39;;;;;;;8.87;7.10;;;30.60;33.50;;;;;;5069053;28;19934;-72
2023/06/18 12:15:13;;;;;;;7.82;7.03;;;30.70;33.40;;;;;;5071850;28;20049;-74
2023/06/18 12:17:49;;;;;;;8.27;6.90;;;30.70;33.10;;;;;;5069714;28;20454;-73
2023/06/18 12:20:16;;;;;;;9.63;7.00;;;30.80;33.80;;;;;;5070746;28;20522;-74
2023/06/18 12:22:43;;;;;;;8.38;6.85;;;30.90;31.00;;;;;;5070103;28;20044;-73
2023/06/18 12:25:12;;;;;;;7.53;6.75;;;30.90;32.40;;;;;;5068604;28;20037;-73
2023/06/18 12:27:40;;;;;;;;;;;30.90;32.40;;;;;;5071054;28;21989;-75
2023/06/18 12:30:09;;;;;;;8.82;7.22;;;30.90;31.50;;;;;;5071702;28;20371;-74
2023/06/18 12:32:36;;;;;;;8.00;7.20;;;31.00;32.80;;;;;;5071025;28;20044;-72
2023/06/18 12:35:12;;;;;;;8.53;7.13;;;30.90;33.30;;;;;;5070565;28;20149;-72
2023/06/18 12:37:42;;;;;;;7.10;6.40;;;30.80;33.50;;;;;;5070651;28;20044;-72
2023/06/18 12:40:11;;;;;;;8.00;6.80;;;30.70;31.40;;;;;;5070659;28;20076;-73
2023/06/18 12:42:38;;;;;;;7.75;6.95;;;30.80;30.70;;;;;;5065693;28;20072;-73
2023/06/18 12:45:07;;;;;;;9.10;8.20;;;30.80;30.80;;;;;;5068520;28;20486;-72
2023/06/18 12:47:42;;;;;;;11.38;10.27;;;30.80;33.10;;;;;;5070488;28;20044;-73
2023/06/18 12:50:09;;;;;;;11.77;10.27;;;30.70;33.30;;;;;;5071320;28;20044;-73